Time;durP1;ratioP1;P1;durP2;ratioP2;P2;SDS_P1;SDS_P2;PMS_P1;PMS_P2;Temp;Humidity;BMP_temperature;BMP_pressure;BME280_temperature;BME280_humidity;BME280_pressure;Samples;Min_cycle;Max_cycle;Signal;HPM_P1;HPM_P2
2024/01/17 00:02:07;;;;;;;7.88;1.98;;;-1.20;99.90;;;;;;5072456;28;20848;-58
2024/01/17 00:04:34;;;;;;;2.42;1.48;;;-1.30;99.90;;;;;;5075195;28;20454;-57
2024/01/17 00:07:01;;;;;;;3.90;1.90;;;-1.30;99.90;;;;;;5075756;28;20443;-58
2024/01/17 00:09:28;;;;;;;3.95;2.00;;;-1.30;99.90;;;;;;5082338;28;20762;-58
2024/01/17 00:11:55;;;;;;;4.88;1.95;;;-1.20;1.00;;;;;;5076949;28;20782;-57
2024/01/17 00:14:22;;;;;;;7.40;1.90;;;-1.30;1.00;;;;;;5076249;28;21011;-57
2024/01/17 00:16:50;;;;;;;4.63;1.90;;;-1.30;1.00;;;;;;5076064;28;20874;-58
2024/01/17 00:19:17;;;;;;;4.63;2.15;;;-1.40;1.00;;;;;;5077570;28;20427;-57
2024/01/17 00:21:47;;;;;;;3.50;1.60;;;-1.40;1.00;;;;;;5077109;28;20431;-58
2024/01/17 00:24:14;;;;;;;3.97;1.70;;;-1.50;1.00;;;;;;5076518;28;20518;-58
2024/01/17 00:26:41;;;;;;;3.70;1.80;;;-1.50;1.00;;;;;;5076893;28;20447;-57
2024/01/17 00:29:08;;;;;;;5.57;2.20;;;-1.40;1.00;;;;;;5077374;28;20431;-58
2024/01/17 00:31:35;;;;;;;5.00;1.80;;;-1.40;1.00;;;;;;5075173;28;20512;-58
2024/01/17 00:34:03;;;;;;;5.18;1.90;;;-1.40;1.00;;;;;;5076432;28;20443;-58
2024/01/17 00:36:30;;;;;;;5.07;2.08;;;-1.40;1.00;;;;;;5076746;28;20439;-58
2024/01/17 00:38:57;;;;;;;4.73;2.33;;;-1.40;1.00;;;;;;5076280;28;20439;-58
2024/01/17 00:41:24;;;;;;;5.50;2.30;;;-1.40;1.00;;;;;;5075356;28;20431;-54
2024/01/17 00:43:51;;;;;;;5.30;2.00;;;-1.30;1.00;;;;;;5076573;28;20439;-56
2024/01/17 00:46:19;;;;;;;4.32;1.70;;;-1.30;1.00;;;;;;5075316;28;20493;-58
2024/01/17 00:48:46;;;;;;;5.40;2.10;;;-1.30;1.00;;;;;;5076706;28;20530;-57
2024/01/17 00:51:24;;;;;;;6.40;2.03;;;-1.20;1.00;;;;;;5075899;28;20443;-58
2024/01/17 00:53:50;;;;;;;4.05;1.58;;;-1.10;1.00;;;;;;5075439;28;20435;-57
2024/01/17 00:56:17;;;;;;;3.00;1.50;;;-1.00;99.90;;;;;;5075872;28;20435;-58
2024/01/17 00:58:45;;;;;;;5.68;1.80;;;-1.00;99.90;;;;;;5076736;28;20415;-56
2024/01/17 01:01:12;;;;;;;4.55;2.10;;;-1.10;99.90;;;;;;5074391;28;20443;-57
2024/01/17 01:03:38;;;;;;;6.00;2.20;;;-1.10;99.90;;;;;;5076380;28;20505;-58
2024/01/17 01:06:06;;;;;;;8.40;2.20;;;-1.10;1.00;;;;;;5075498;28;20439;-57
2024/01/17 01:08:34;;;;;;;5.40;1.87;;;-1.10;99.90;;;;;;5076741;28;20598;-57
2024/01/17 01:11:01;;;;;;;5.72;2.00;;;-1.10;1.00;;;;;;5075990;28;20869;-57
2024/01/17 01:13:28;;;;;;;4.68;1.75;;;-1.20;1.00;;;;;;5076724;28;20416;-57
2024/01/17 01:15:55;;;;;;;6.45;2.33;;;-1.20;1.00;;;;;;5076200;28;20505;-57
2024/01/17 01:18:22;;;;;;;3.95;1.60;;;-1.20;1.00;;;;;;5076712;28;20825;-57
2024/01/17 01:20:49;;;;;;;4.72;2.10;;;-1.20;1.00;;;;;;5074176;28;20493;-56
2024/01/17 01:23:16;;;;;;;5.07;1.90;;;-1.30;1.00;;;;;;5074905;28;20744;-57
2024/01/17 01:25:45;;;;;;;4.53;1.90;;;-1.30;1.00;;;;;;5075218;28;20423;-58
2024/01/17 01:28:11;;;;;;;5.13;1.52;;;-1.30;1.00;;;;;;5075961;28;20434;-57
2024/01/17 01:30:38;;;;;;;4.10;1.90;;;-1.30;1.00;;;;;;5075913;28;20445;-56
2024/01/17 01:33:05;;;;;;;4.68;1.70;;;-1.30;1.00;;;;;;5075697;28;20432;-57
2024/01/17 01:35:32;;;;;;;4.50;1.70;;;-1.30;1.00;;;;;;5076411;28;20416;-56
2024/01/17 01:37:59;;;;;;;2.60;1.53;;;-1.20;1.00;;;;;;5075915;28;20415;-57
2024/01/17 01:40:26;;;;;;;5.43;1.93;;;-1.10;1.00;;;;;;5076028;28;20478;-58
2024/01/17 01:42:58;;;;;;;3.58;2.00;;;-1.20;1.00;;;;;;5074434;28;20450;-59
2024/01/17 01:45:25;;;;;;;5.88;1.90;;;-1.10;1.00;;;;;;5074459;28;20522;-57
2024/01/17 01:47:52;;;;;;;3.67;1.92;;;-1.10;1.00;;;;;;5075640;28;20545;-57
2024/01/17 01:50:20;;;;;;;5.60;1.88;;;-1.10;1.00;;;;;;5074603;28;20439;-58
2024/01/17 01:52:50;;;;;;;6.13;2.42;;;-1.10;1.00;;;;;;5073661;28;20446;-57
2024/01/17 01:55:18;;;;;;;3.08;1.65;;;-1.00;1.00;;;;;;5074387;28;20440;-57
2024/01/17 01:57:50;;;;;;;3.28;2.10;;;-1.00;1.00;;;;;;5075617;28;20748;-57
2024/01/17 02:00:19;;;;;;;4.33;2.27;;;-1.00;1.00;;;;;;5074933;28;20471;-56
2024/01/17 02:02:46;;;;;;;6.00;1.85;;;-1.00;1.00;;;;;;5073799;28;20845;-57
2024/01/17 02:05:14;;;;;;;4.80;1.85;;;-1.00;1.00;;;;;;5074759;28;20443;-57
2024/01/17 02:07:41;;;;;;;4.68;1.80;;;-1.10;1.00;;;;;;5075083;28;20427;-57
2024/01/17 02:10:09;;;;;;;4.32;1.73;;;-1.00;1.00;;;;;;5067944;28;20435;-57
2024/01/17 02:12:38;;;;;;;5.00;1.50;;;-1.10;1.00;;;;;;5073384;28;20508;-58
2024/01/17 02:15:06;;;;;;;4.30;1.75;;;-1.10;1.00;;;;;;5073893;28;20887;-54
2024/01/17 02:17:35;;;;;;;3.35;1.70;;;-1.10;1.00;;;;;;5075739;28;20455;-56
2024/01/17 02:20:02;;;;;;;4.05;1.70;;;-1.10;1.00;;;;;;5075524;28;20412;-57
2024/01/17 02:22:29;;;;;;;4.50;1.75;;;-1.00;1.00;;;;;;5074948;28;20514;-57
2024/01/17 02:24:57;;;;;;;5.88;1.60;;;-1.00;1.00;;;;;;5076185;28;20423;-57
2024/01/17 02:27:24;;;;;;;4.27;1.90;;;-0.90;1.00;;;;;;5074334;28;20465;-58
2024/01/17 02:29:51;;;;;;;5.05;1.98;;;-0.80;1.00;;;;;;5074457;28;20560;-58
2024/01/17 02:32:18;;;;;;;4.90;2.15;;;-0.90;1.00;;;;;;5075378;28;20423;-55
2024/01/17 02:34:45;;;;;;;3.80;1.63;;;-0.90;90.30;;;;;;5075197;28;20415;-57
2024/01/17 02:37:15;;;;;;;4.47;1.50;;;-0.80;99.90;;;;;;5074654;28;20875;-57
2024/01/17 02:39:42;;;;;;;5.03;2.00;;;-0.80;1.00;;;;;;5075265;28;20430;-55
2024/01/17 02:42:10;;;;;;;5.95;2.03;;;-0.70;1.00;;;;;;5074903;28;20442;-58
2024/01/17 02:44:37;;;;;;;5.07;1.50;;;-0.70;1.00;;;;;;5074259;28;20500;-57
2024/01/17 02:47:04;;;;;;;3.28;1.42;;;-0.70;43.40;;;;;;5074488;28;20427;-56
2024/01/17 02:49:31;;;;;;;5.43;2.28;;;-0.70;99.90;;;;;;5074093;28;20435;-57
2024/01/17 02:51:58;;;;;;;3.47;1.30;;;-0.80;1.00;;;;;;5073334;28;20439;-57
2024/01/17 02:54:25;;;;;;;4.70;2.10;;;-0.90;99.90;;;;;;5073675;28;20444;-57
2024/01/17 02:56:52;;;;;;;5.30;1.88;;;-0.80;37.20;;;;;;5075454;28;20438;-56
2024/01/17 02:59:21;;;;;;;4.45;1.90;;;-0.70;99.90;;;;;;5074711;28;20445;-57
2024/01/17 03:01:48;;;;;;;3.80;1.92;;;-0.70;99.90;;;;;;5074379;28;20423;-58
2024/01/17 03:04:15;;;;;;;3.83;1.50;;;-0.80;1.00;;;;;;5074073;28;20432;-57
2024/01/17 03:06:43;;;;;;;4.53;2.00;;;-0.80;99.90;;;;;;5074890;28;20419;-56
2024/01/17 03:09:10;;;;;;;3.72;1.60;;;-0.80;1.00;;;;;;5071458;28;20435;-55
2024/01/17 03:11:37;;;;;;;5.95;1.95;;;-0.90;1.00;;;;;;5072673;28;20468;-55
2024/01/17 03:14:05;;;;;;;5.88;2.10;;;-0.90;1.00;;;;;;5073979;28;20431;-56
2024/01/17 03:16:35;;;;;;;4.95;2.80;;;-0.80;1.00;;;;;;5071441;28;20453;-55
2024/01/17 03:19:02;;;;;;;4.43;2.00;;;-0.90;1.00;;;;;;5074217;28;20435;-56
2024/01/17 03:21:29;;;;;;;3.08;1.73;;;-0.90;1.00;;;;;;5073319;28;20879;-56
2024/01/17 03:23:58;;;;;;;6.03;2.13;;;-0.80;7.40;;;;;;5073191;28;20442;-55
2024/01/17 03:26:25;;;;;;;7.88;1.90;;;-0.80;14.50;;;;;;5073999;28;20793;-55
2024/01/17 03:28:52;;;;;;;8.40;3.00;;;-0.80;28.40;;;;;;5074453;28;20431;-55
2024/01/17 03:31:19;;;;;;;7.28;2.38;;;-0.80;41.60;;;;;;5073967;28;20434;-54
2024/01/17 03:33:47;;;;;;;4.32;2.58;;;-0.70;47.90;;;;;;5073509;28;20431;-56
2024/01/17 03:36:14;;;;;;;5.43;2.70;;;-0.80;46.90;;;;;;5073467;28;20586;-52
2024/01/17 03:38:41;;;;;;;6.10;2.60;;;-0.80;44.20;;;;;;5073959;28;20809;-55
2024/01/17 03:41:08;;;;;;;5.55;2.50;;;-0.80;54.60;;;;;;5073947;28;20744;-56
2024/01/17 03:43:35;;;;;;;4.30;2.20;;;-0.90;60.30;;;;;;5073293;28;20492;-56
2024/01/17 03:46:02;;;;;;;3.88;2.03;;;-0.90;74.20;;;;;;5072950;28;20488;-55
2024/01/17 03:48:29;;;;;;;4.07;2.13;;;-0.80;88.30;;;;;;5073836;28;20439;-53
2024/01/17 03:50:57;;;;;;;5.35;2.40;;;-0.70;90.30;;;;;;5073546;28;20824;-54
2024/01/17 03:53:24;;;;;;;8.52;2.33;;;-0.60;83.40;;;;;;5073516;28;20419;-56
2024/01/17 03:55:51;;;;;;;3.58;2.15;;;-0.60;84.60;;;;;;5072409;28;20741;-54
2024/01/17 03:58:18;;;;;;;3.83;2.10;;;-0.60;93.20;;;;;;5070853;28;20439;-56
2024/01/17 04:00:45;;;;;;;6.35;3.10;;;-0.60;97.30;;;;;;5070934;28;20512;-54
2024/01/17 04:03:13;;;;;;;6.05;2.90;;;-0.50;98.90;;;;;;5068707;28;20873;-55
2024/01/17 04:05:40;;;;;;;7.60;2.50;;;-0.50;99.70;;;;;;5069897;28;20956;-55
2024/01/17 04:08:08;;;;;;;6.95;2.33;;;-0.40;99.90;;;;;;5071567;28;20740;-54
2024/01/17 04:10:35;;;;;;;6.28;2.42;;;-0.30;99.90;;;;;;5069999;28;20460;-53
2024/01/17 04:13:02;;;;;;;5.88;2.80;;;-0.30;99.90;;;;;;5073036;28;20435;-50
2024/01/17 04:15:29;;;;;;;5.15;2.58;;;-0.20;99.90;;;;;;5070415;28;20439;-53
2024/01/17 04:17:56;;;;;;;4.57;2.10;;;-0.10;99.90;;;;;;5071585;28;20439;-55
2024/01/17 04:20:23;;;;;;;6.38;2.60;;;-0.10;99.90;;;;;;5074129;28;20635;-53
2024/01/17 04:22:50;;;;;;;5.53;2.30;;;-0.10;99.90;;;;;;5072484;28;20462;-54
2024/01/17 04:25:19;;;;;;;4.68;3.15;;;-0.10;99.90;;;;;;5073442;28;20878;-54
2024/01/17 04:27:46;;;;;;;5.20;2.20;;;0.00;99.90;;;;;;5074628;28;20443;-55
2024/01/17 04:30:14;;;;;;;5.03;1.90;;;0.00;99.90;;;;;;5073893;28;20439;-52
2024/01/17 04:32:42;;;;;;;6.65;2.50;;;0.10;99.90;;;;;;5072805;28;20431;-54
2024/01/17 04:35:10;;;;;;;5.72;2.92;;;0.20;99.90;;;;;;5073213;28;20856;-51
2024/01/17 04:37:39;;;;;;;7.20;2.83;;;0.20;99.90;;;;;;5077456;28;20427;-52
2024/01/17 04:40:07;;;;;;;5.22;2.22;;;0.30;99.90;;;;;;5078261;28;20518;-54
2024/01/17 04:42:36;;;;;;;6.30;2.55;;;0.30;99.90;;;;;;5077209;28;20427;-53
2024/01/17 04:45:04;;;;;;;7.32;3.28;;;0.30;99.90;;;;;;5076962;28;20423;-54
2024/01/17 04:47:31;;;;;;;6.18;3.05;;;0.30;99.90;;;;;;5075704;28;20453;-54
2024/01/17 04:49:58;;;;;;;7.22;2.70;;;0.30;99.90;;;;;;5076970;28;20435;-55
2024/01/17 04:52:26;;;;;;;5.07;2.72;;;0.40;99.90;;;;;;5075418;28;21955;-51
2024/01/17 04:54:53;;;;;;;6.32;2.83;;;0.40;99.90;;;;;;5076912;28;20461;-54
2024/01/17 04:57:20;;;;;;;6.75;3.30;;;0.30;99.90;;;;;;5077654;28;20473;-54
2024/01/17 04:59:48;;;;;;;6.18;2.50;;;0.30;99.90;;;;;;5097126;28;20426;-53
2024/01/17 05:02:15;;;;;;;4.15;2.42;;;0.30;99.90;;;;;;5082448;28;20427;-54
2024/01/17 05:04:43;;;;;;;5.33;2.70;;;0.30;99.90;;;;;;5077626;28;20473;-53
2024/01/17 05:07:10;;;;;;;5.67;2.80;;;0.40;99.90;;;;;;5076128;28;20695;-53
2024/01/17 05:09:37;;;;;;;6.07;2.58;;;0.50;99.90;;;;;;5072614;28;20501;-54
2024/01/17 05:12:05;;;;;;;5.30;2.80;;;0.50;99.90;;;;;;5073668;28;20445;-52
2024/01/17 05:14:32;;;;;;;9.00;4.20;;;0.50;99.90;;;;;;5075507;28;20432;-55
2024/01/17 05:17:01;;;;;;;7.60;4.13;;;0.60;99.90;;;;;;5075128;28;20423;-56
2024/01/17 05:19:28;;;;;;;5.70;3.22;;;0.40;99.90;;;;;;5075684;28;20538;-56
2024/01/17 05:21:55;;;;;;;7.93;3.93;;;0.30;99.90;;;;;;5072406;28;20447;-50
2024/01/17 05:24:22;;;;;;;7.57;3.92;;;0.40;99.90;;;;;;5074549;28;20741;-55
2024/01/17 05:26:49;;;;;;;6.78;3.97;;;0.40;99.90;;;;;;5074709;28;20458;-54
2024/01/17 05:29:16;;;;;;;6.97;3.58;;;0.40;99.90;;;;;;5072480;28;20431;-53
2024/01/17 05:31:43;;;;;;;5.68;3.72;;;0.40;99.90;;;;;;5073893;28;20882;-52
2024/01/17 05:34:11;;;;;;;6.38;3.38;;;0.50;99.90;;;;;;5074343;28;20845;-53
2024/01/17 05:36:39;;;;;;;6.75;3.45;;;0.60;99.90;;;;;;5073390;28;20506;-52
2024/01/17 05:39:06;;;;;;;5.95;4.00;;;0.60;99.90;;;;;;5072830;28;20447;-51
2024/01/17 05:41:33;;;;;;;6.82;4.10;;;0.70;99.90;;;;;;5072717;28;20968;-56
2024/01/17 05:44:00;;;;;;;7.18;4.15;;;0.60;99.90;;;;;;5074134;28;20508;-55
2024/01/17 05:46:27;;;;;;;5.28;3.00;;;0.50;99.90;;;;;;5075088;28;20764;-55
2024/01/17 05:48:54;;;;;;;5.70;4.25;;;0.50;99.90;;;;;;5075165;28;20454;-55
2024/01/17 05:51:23;;;;;;;7.13;3.63;;;0.40;99.90;;;;;;5074266;28;20439;-55
2024/01/17 05:53:50;;;;;;;8.68;3.80;;;0.40;99.90;;;;;;5073146;28;20439;-51
2024/01/17 05:56:16;;;;;;;8.55;4.03;;;0.50;99.90;;;;;;5074848;28;20419;-52
2024/01/17 05:58:43;;;;;;;9.85;3.33;;;0.50;99.90;;;;;;5072291;28;20500;-51
2024/01/17 06:01:10;;;;;;;6.45;3.60;;;0.50;99.90;;;;;;5074067;28;20443;-52
2024/01/17 06:03:37;;;;;;;5.55;3.08;;;0.50;99.90;;;;;;5073402;28;20447;-53
2024/01/17 06:06:05;;;;;;;7.43;3.08;;;0.50;99.90;;;;;;5073861;28;20825;-55
2024/01/17 06:08:33;;;;;;;7.50;3.97;;;0.60;99.90;;;;;;5073618;28;21018;-52
2024/01/17 06:11:01;;;;;;;7.80;3.90;;;0.60;99.90;;;;;;5071734;28;20431;-54
2024/01/17 06:13:28;;;;;;;7.57;4.10;;;0.60;99.90;;;;;;5071709;28;20461;-52
2024/01/17 06:15:55;;;;;;;6.10;3.65;;;0.70;99.90;;;;;;5073407;28;20835;-55
2024/01/17 06:18:22;;;;;;;9.05;3.85;;;0.60;99.90;;;;;;5073070;28;20478;-53
2024/01/17 06:20:49;;;;;;;7.33;3.47;;;0.60;99.90;;;;;;5061612;28;21091;-54
2024/01/17 06:23:16;;;;;;;7.13;3.25;;;0.60;99.90;;;;;;5061587;28;20505;-54
2024/01/17 06:25:44;;;;;;;8.60;3.83;;;0.60;99.90;;;;;;5073768;28;20415;-55
2024/01/17 06:28:11;;;;;;;7.57;3.25;;;0.60;99.90;;;;;;5074642;28;20419;-53
2024/01/17 06:30:38;;;;;;;7.53;4.32;;;0.70;99.90;;;;;;5075029;28;20834;-50
2024/01/17 06:33:05;;;;;;;6.83;3.63;;;0.70;99.90;;;;;;5074089;28;20845;-55
2024/01/17 06:35:33;;;;;;;6.68;3.28;;;0.80;99.90;;;;;;5073585;28;20457;-52
2024/01/17 06:38:00;;;;;;;4.63;3.35;;;0.80;99.90;;;;;;5072965;28;20415;-55
2024/01/17 06:40:27;;;;;;;6.90;2.80;;;0.80;99.90;;;;;;5073952;28;20449;-53
2024/01/17 06:42:55;;;;;;;6.85;3.55;;;0.80;99.90;;;;;;5070559;28;20487;-54
2024/01/17 06:45:24;;;;;;;4.10;3.10;;;0.90;99.90;;;;;;5070368;28;20507;-53
2024/01/17 06:47:51;;;;;;;6.60;2.85;;;0.90;99.90;;;;;;5071152;28;20438;-54
2024/01/17 06:50:19;;;;;;;4.85;3.20;;;0.90;99.90;;;;;;5071723;28;20435;-53
2024/01/17 06:52:46;;;;;;;6.45;3.40;;;0.90;99.90;;;;;;5072303;28;20465;-54
2024/01/17 06:55:13;;;;;;;8.07;3.20;;;0.90;99.90;;;;;;5070131;28;20440;-53
2024/01/17 06:57:40;;;;;;;7.03;3.60;;;1.00;99.90;;;;;;5071202;28;20510;-55
2024/01/17 07:00:13;;;;;;;4.85;2.75;;;1.00;99.90;;;;;;5070886;28;20508;-55
2024/01/17 07:02:40;;;;;;;6.28;2.95;;;1.00;99.90;;;;;;5058683;28;20440;-55
2024/01/17 07:05:08;;;;;;;4.45;3.22;;;1.00;99.90;;;;;;5072615;28;20419;-56
2024/01/17 07:07:35;;;;;;;7.90;3.57;;;1.10;99.90;;;;;;5071349;28;20493;-52
2024/01/17 07:10:03;;;;;;;8.65;4.07;;;1.20;99.90;;;;;;5072230;28;20431;-54
2024/01/17 07:12:30;;;;;;;5.65;2.60;;;1.20;99.90;;;;;;5072218;28;20435;-55
2024/01/17 07:14:57;;;;;;;5.28;2.72;;;1.30;99.90;;;;;;5070505;28;20542;-53
2024/01/17 07:17:25;;;;;;;8.57;3.10;;;1.30;99.90;;;;;;5070476;28;20478;-55
2024/01/17 07:19:54;;;;;;;6.40;2.90;;;1.30;99.90;;;;;;5070358;28;21604;-53
2024/01/17 07:22:21;;;;;;;8.57;2.90;;;1.40;99.90;;;;;;5069824;28;21782;-54
2024/01/17 07:24:48;;;;;;;7.07;3.13;;;1.40;99.90;;;;;;5070764;28;20467;-53
2024/01/17 07:27:15;;;;;;;7.20;3.67;;;1.40;99.90;;;;;;5063593;28;20538;-54
2024/01/17 07:29:42;;;;;;;10.25;3.38;;;1.40;99.90;;;;;;5069670;28;20451;-56
2024/01/17 07:32:09;;;;;;;6.00;3.80;;;1.50;99.90;;;;;;5068419;28;21002;-54
2024/01/17 07:34:37;;;;;;;6.95;3.40;;;1.40;99.90;;;;;;5067944;28;20851;-54
2024/01/17 07:37:05;;;;;;;8.30;3.60;;;1.50;99.90;;;;;;5068441;28;20457;-53
2024/01/17 07:39:32;;;;;;;5.85;3.53;;;1.50;99.90;;;;;;5065409;28;20446;-52
2024/01/17 07:41:59;;;;;;;6.70;2.80;;;1.50;99.90;;;;;;5067612;28;20828;-54
2024/01/17 07:44:29;;;;;;;8.00;2.92;;;1.60;99.90;;;;;;5068588;28;20504;-54
2024/01/17 07:46:56;;;;;;;5.57;3.33;;;1.60;99.90;;;;;;5067984;28;21034;-52
2024/01/17 07:49:23;;;;;;;5.95;3.22;;;1.70;99.90;;;;;;5071036;28;20444;-57
2024/01/17 07:51:51;;;;;;;9.05;3.03;;;1.80;99.90;;;;;;5071071;28;20760;-57
2024/01/17 07:54:18;;;;;;;12.07;4.10;;;1.90;99.90;;;;;;5071333;28;20440;-56
2024/01/17 07:56:44;;;;;;;7.15;3.15;;;1.90;99.90;;;;;;5070424;28;20557;-56
2024/01/17 07:59:12;;;;;;;7.63;4.10;;;2.00;99.90;;;;;;5073509;28;20448;-54
2024/01/17 08:01:40;;;;;;;8.40;3.88;;;2.10;99.90;;;;;;5080601;28;20431;-54
2024/01/17 08:04:08;;;;;;;5.22;3.10;;;2.10;99.90;;;;;;5069039;28;20467;-50
2024/01/17 08:06:35;;;;;;;7.45;3.78;;;2.20;99.90;;;;;;5070010;28;20450;-55
2024/01/17 08:09:12;;;;;;;8.30;3.00;;;2.20;99.90;;;;;;5071468;28;20454;-54
2024/01/17 08:11:39;;;;;;;7.68;3.28;;;2.20;99.90;;;;;;5073363;28;20457;-54
2024/01/17 08:14:06;;;;;;;6.13;2.60;;;2.20;99.90;;;;;;5072280;28;20434;-55
2024/01/17 08:16:33;;;;;;;10.55;3.80;;;2.30;99.90;;;;;;5073190;28;20431;-52
2024/01/17 08:19:00;;;;;;;6.95;3.53;;;2.40;99.90;;;;;;5072478;28;20945;-54
2024/01/17 08:21:27;;;;;;;7.40;4.15;;;2.40;99.90;;;;;;5073834;28;21270;-52
2024/01/17 08:23:54;;;;;;;7.72;3.20;;;2.40;99.90;;;;;;5073916;28;20427;-54
2024/01/17 08:26:22;;;;;;;6.93;4.00;;;2.60;99.90;;;;;;5073519;28;20801;-51
2024/01/17 08:28:49;;;;;;;7.70;3.50;;;2.50;99.90;;;;;;5074387;28;20419;-54
2024/01/17 08:31:16;;;;;;;6.72;3.53;;;2.60;99.90;;;;;;5074829;28;20496;-52
2024/01/17 08:33:44;;;;;;;7.63;2.30;;;2.60;99.90;;;;;;5074808;28;20759;-51
2024/01/17 08:36:12;;;;;;;7.68;3.08;;;2.70;99.90;;;;;;5065928;28;20462;-54
2024/01/17 08:38:39;;;;;;;8.00;3.10;;;2.70;99.90;;;;;;5072698;28;20435;-51
2024/01/17 08:41:06;;;;;;;6.07;2.67;;;2.70;99.90;;;;;;5073116;28;20427;-52
2024/01/17 08:43:34;;;;;;;5.38;2.78;;;2.70;99.90;;;;;;5073814;28;20788;-53
2024/01/17 08:46:02;;;;;;;6.15;2.88;;;2.70;99.90;;;;;;5073868;28;20530;-53
2024/01/17 08:48:30;;;;;;;6.30;3.08;;;2.70;99.90;;;;;;5080432;28;21089;-52
2024/01/17 08:50:59;;;;;;;8.48;3.55;;;2.70;99.90;;;;;;5072714;28;20518;-50
2024/01/17 08:53:30;;;;;;;4.70;1.92;;;2.90;99.90;;;;;;5072641;28;20441;-54
2024/01/17 08:55:58;;;;;;;5.88;2.50;;;3.00;99.90;;;;;;5074058;28;20845;-55
2024/01/17 08:58:25;;;;;;;5.63;2.60;;;3.00;99.90;;;;;;5075357;28;20706;-56
2024/01/17 09:00:54;;;;;;;5.82;2.75;;;3.00;99.90;;;;;;5074510;28;20427;-56
2024/01/17 09:03:21;;;;;;;5.53;2.80;;;3.00;99.90;;;;;;5072144;28;20439;-55
2024/01/17 09:05:48;;;;;;;5.53;3.00;;;3.00;99.90;;;;;;5070475;28;20575;-54
2024/01/17 09:08:16;;;;;;;6.85;2.47;;;3.10;99.90;;;;;;5073198;28;20453;-54
2024/01/17 09:10:43;;;;;;;8.10;2.90;;;3.10;99.90;;;;;;5069084;28;20569;-58
2024/01/17 09:13:13;;;;;;;6.28;2.80;;;3.20;99.90;;;;;;5071702;28;20968;-56
2024/01/17 09:15:40;;;;;;;5.85;2.08;;;3.30;99.90;;;;;;5074147;28;20441;-51
2024/01/17 09:18:08;;;;;;;6.20;2.38;;;3.30;99.90;;;;;;5072507;28;20439;-55
2024/01/17 09:20:35;;;;;;;4.72;1.90;;;3.30;99.90;;;;;;5072321;28;20443;-54
2024/01/17 09:23:02;;;;;;;4.65;2.30;;;3.30;99.90;;;;;;5071226;28;20432;-54
2024/01/17 09:25:29;;;;;;;3.67;1.63;;;3.30;99.90;;;;;;5070444;28;20450;-54
2024/01/17 09:27:56;;;;;;;4.05;1.65;;;3.40;99.90;;;;;;5071512;28;20439;-53
2024/01/17 09:30:24;;;;;;;3.83;1.50;;;3.50;99.90;;;;;;5071803;28;20439;-50
2024/01/17 09:32:50;;;;;;;3.73;1.50;;;3.60;99.90;;;;;;5072867;28;20443;-56
2024/01/17 09:35:19;;;;;;;4.10;1.60;;;3.60;99.90;;;;;;5072869;28;20488;-56
2024/01/17 09:37:46;;;;;;;2.90;1.30;;;3.60;99.90;;;;;;5073836;28;20772;-49
2024/01/17 09:40:14;;;;;;;3.72;1.38;;;3.50;99.90;;;;;;5071844;28;20440;-54
2024/01/17 09:42:42;;;;;;;4.75;1.40;;;3.60;99.90;;;;;;5073303;28;20423;-56
2024/01/17 09:45:11;;;;;;;3.20;1.33;;;3.60;99.90;;;;;;5068452;28;20506;-53
2024/01/17 09:47:41;;;;;;;3.47;1.60;;;3.60;99.90;;;;;;5071509;28;20853;-50
2024/01/17 09:50:09;;;;;;;3.20;1.20;;;3.70;99.90;;;;;;5072259;28;20919;-50
2024/01/17 09:52:41;;;;;;;2.72;1.20;;;3.60;99.90;;;;;;5072616;28;20692;-50
2024/01/17 09:55:09;;;;;;;2.38;1.10;;;3.70;99.90;;;;;;5071497;28;20530;-54
2024/01/17 09:57:42;;;;;;;3.50;1.20;;;3.70;99.90;;;;;;5071361;28;20488;-51
2024/01/17 10:00:10;;;;;;;3.88;1.30;;;3.70;99.90;;;;;;5071834;28;20448;-57
2024/01/17 10:02:38;;;;;;;3.60;1.10;;;3.70;99.90;;;;;;5071660;28;20431;-56
2024/01/17 10:05:07;;;;;;;3.78;1.20;;;3.60;99.90;;;;;;5071019;28;20512;-51
2024/01/17 10:07:34;;;;;;;2.70;1.20;;;3.70;99.90;;;;;;5072299;28;20447;-55
2024/01/17 10:10:02;;;;;;;2.67;1.40;;;3.70;99.90;;;;;;5068480;28;20431;-52
2024/01/17 10:12:30;;;;;;;2.83;1.10;;;3.70;99.90;;;;;;5072243;28;20432;-51
2024/01/17 10:14:57;;;;;;;4.07;1.20;;;3.70;99.90;;;;;;5072176;28;20495;-53
2024/01/17 10:17:26;;;;;;;3.40;1.20;;;3.80;99.90;;;;;;5070774;28;20930;-51
2024/01/17 10:19:53;;;;;;;2.67;1.00;;;3.80;99.90;;;;;;5072513;28;20439;-51
2024/01/17 10:22:20;;;;;;;1.90;1.10;;;3.80;99.90;;;;;;5070026;28;20507;-53
2024/01/17 10:24:52;;;;;;;2.10;1.20;;;3.80;99.90;;;;;;5071522;28;20427;-54
2024/01/17 10:27:20;;;;;;;3.17;1.20;;;3.80;99.90;;;;;;5072479;28;20933;-51
2024/01/17 10:29:47;;;;;;;3.05;1.30;;;3.80;99.90;;;;;;5064684;28;20752;-51
2024/01/17 10:32:14;;;;;;;4.07;1.30;;;3.90;99.90;;;;;;5070182;28;20438;-52
2024/01/17 10:34:41;;;;;;;5.97;1.90;;;3.90;99.90;;;;;;5071892;28;20454;-52
2024/01/17 10:37:11;;;;;;;2.05;1.33;;;3.90;99.90;;;;;;5072134;28;20427;-50
2024/01/17 10:39:38;;;;;;;3.97;1.50;;;3.90;99.90;;;;;;5071758;28;20770;-53
2024/01/17 10:42:05;;;;;;;2.50;1.13;;;3.90;99.90;;;;;;5069382;28;20706;-53
2024/01/17 10:44:35;;;;;;;5.20;1.60;;;3.90;99.90;;;;;;5070585;28;20812;-54
2024/01/17 10:47:02;;;;;;;3.90;1.60;;;3.90;99.90;;;;;;5070428;28;20535;-50
2024/01/17 10:49:30;;;;;;;3.40;1.30;;;3.90;99.90;;;;;;5072110;28;21060;-53
2024/01/17 10:52:03;;;;;;;4.60;1.60;;;3.80;99.90;;;;;;5069622;28;21058;-53
2024/01/17 10:54:46;;;;;;;3.08;1.30;;;3.80;99.90;;;;;;5069237;28;20524;-52
2024/01/17 10:57:15;;;;;;;3.33;1.60;;;3.70;99.90;;;;;;5070299;28;20423;-54
2024/01/17 10:59:47;;;;;;;4.70;2.10;;;3.80;99.90;;;;;;5068181;28;20512;-54
2024/01/17 11:02:19;;;;;;;2.90;1.30;;;3.80;99.90;;;;;;5063659;28;20443;-53
2024/01/17 11:04:47;;;;;;;4.70;1.40;;;3.80;99.90;;;;;;5069788;28;20437;-55
2024/01/17 11:07:16;;;;;;;3.10;1.20;;;3.80;99.90;;;;;;5069653;28;20806;-51
2024/01/17 11:09:46;;;;;;;4.00;1.70;;;3.90;99.90;;;;;;5069856;28;20530;-53
2024/01/17 11:12:15;;;;;;;6.00;2.20;;;3.90;99.90;;;;;;5067757;28;20465;-57
2024/01/17 11:14:46;;;;;;;3.00;1.33;;;3.90;99.90;;;;;;5068114;28;20435;-52
2024/01/17 11:17:14;;;;;;;3.55;1.67;;;3.90;99.90;;;;;;5069159;28;20423;-52
2024/01/17 11:19:44;;;;;;;3.45;1.70;;;3.90;99.90;;;;;;5071082;28;20419;-55
2024/01/17 11:22:12;;;;;;;3.87;1.50;;;3.90;99.90;;;;;;5071704;28;20431;-56
2024/01/17 11:24:44;;;;;;;2.50;1.40;;;4.00;99.90;;;;;;5071667;28;20813;-52
2024/01/17 11:27:22;;;;;;;3.30;1.90;;;4.00;99.90;;;;;;5071150;28;20500;-55
2024/01/17 11:29:59;;;;;;;4.25;2.00;;;4.10;99.90;;;;;;5069271;28;20446;-54
2024/01/17 11:32:42;;;;;;;4.00;1.90;;;4.00;99.90;;;;;;5070755;28;20579;-54
2024/01/17 11:35:09;;;;;;;3.50;1.50;;;3.90;99.90;;;;;;5069697;28;20518;-55
2024/01/17 11:37:38;;;;;;;3.58;1.70;;;3.90;99.90;;;;;;5069915;28;20464;-56
2024/01/17 11:40:09;;;;;;;3.20;1.40;;;3.90;99.90;;;;;;5067327;28;20461;-56
2024/01/17 11:42:36;;;;;;;3.45;1.10;;;4.00;99.90;;;;;;5071095;28;20422;-56
2024/01/17 11:45:06;;;;;;;3.03;1.20;;;4.00;99.90;;;;;;5070226;28;20427;-56
2024/01/17 11:47:34;;;;;;;3.00;1.38;;;4.10;99.90;;;;;;5072613;28;20462;-56
2024/01/17 11:50:05;;;;;;;3.25;1.38;;;4.30;99.90;;;;;;5071932;28;20911;-54
2024/01/17 11:52:34;;;;;;;2.65;1.00;;;4.30;99.90;;;;;;5074433;28;20440;-55
2024/01/17 11:55:07;;;;;;;3.00;1.00;;;4.50;99.90;;;;;;5073636;28;20872;-57
2024/01/17 11:57:37;;;;;;;1.90;1.10;;;4.50;99.90;;;;;;5071683;28;20439;-55
2024/01/17 12:00:07;;;;;;;3.20;1.00;;;4.60;99.90;;;;;;5075741;28;20428;-53
2024/01/17 12:02:38;;;;;;;2.35;1.10;;;4.60;99.90;;;;;;5072177;28;20431;-55
2024/01/17 12:05:07;;;;;;;1.75;1.00;;;4.60;99.90;;;;;;5074372;28;20874;-58
2024/01/17 12:07:38;;;;;;;3.40;1.10;;;4.70;99.90;;;;;;5074586;28;20780;-57
2024/01/17 12:10:09;;;;;;;2.40;0.98;;;4.80;99.90;;;;;;5074412;28;20433;-57
2024/01/17 12:12:37;;;;;;;2.67;0.87;;;4.80;99.90;;;;;;5072464;28;20439;-56
2024/01/17 12:15:09;;;;;;;1.60;0.82;;;4.80;99.90;;;;;;5073941;28;20427;-57
2024/01/17 12:17:38;;;;;;;1.60;0.87;;;5.00;99.90;;;;;;5074312;28;20458;-55
2024/01/17 12:20:07;;;;;;;1.42;0.77;;;5.00;99.90;;;;;;5075472;28;20419;-56
2024/01/17 12:22:34;;;;;;;1.10;0.73;;;5.10;99.90;;;;;;5073837;28;20431;-57
2024/01/17 12:25:01;;;;;;;1.33;0.70;;;5.20;99.90;;;;;;5070178;28;20431;-58
2024/01/17 12:27:30;;;;;;;1.40;0.60;;;5.30;99.90;;;;;;5073735;28;20813;-57
2024/01/17 12:30:01;;;;;;;1.80;0.70;;;5.40;99.90;;;;;;5071005;28;20475;-55
2024/01/17 12:32:30;;;;;;;1.58;0.70;;;5.40;99.90;;;;;;5071785;28;20427;-57
2024/01/17 12:34:57;;;;;;;0.90;0.60;;;5.40;99.90;;;;;;5072529;28;20435;-56
2024/01/17 12:37:24;;;;;;;1.50;0.60;;;5.50;99.90;;;;;;5073307;28;20776;-55
2024/01/17 12:39:53;;;;;;;1.38;0.60;;;5.60;99.90;;;;;;5073805;28;20412;-57
2024/01/17 12:42:20;;;;;;;1.20;0.50;;;5.70;99.90;;;;;;5072337;28;20432;-55
2024/01/17 12:44:47;;;;;;;1.10;0.60;;;5.90;99.90;;;;;;5073432;28;20427;-56
2024/01/17 12:47:14;;;;;;;1.00;0.50;;;6.00;99.90;;;;;;5072990;28;20714;-56
2024/01/17 12:49:46;;;;;;;1.00;0.60;;;6.10;99.90;;;;;;5073186;28;20431;-58
2024/01/17 12:52:16;;;;;;;0.90;0.50;;;6.20;99.90;;;;;;5073884;28;20432;-57
2024/01/17 12:54:43;;;;;;;1.42;0.50;;;6.30;99.90;;;;;;5075312;28;20511;-58
2024/01/17 12:57:11;;;;;;;1.73;0.40;;;6.40;99.90;;;;;;5073159;28;20423;-57
2024/01/17 12:59:38;;;;;;;0.80;0.43;;;6.50;99.90;;;;;;5073819;28;20423;-55